sensor_id;sensor_type;location;lat;lon;timestamp;pressure;altitude;pressure_sealevel;temperature;humidity
20105;BME280;10212;42.714;23.310;2022-08-19T00:02:36;94996.13;;;20.43;61.18
20105;BME280;10212;42.714;23.310;2022-08-19T00:07:36;94999.56;;;20.38;61.21
20105;BME280;10212;42.714;23.310;2022-08-19T00:12:37;95001.19;;;20.29;61.95
20105;BME280;10212;42.714;23.310;2022-08-19T00:17:39;94996.94;;;20.07;62.91
20105;BME280;10212;42.714;23.310;2022-08-19T00:22:40;95021.03;;;20.10;62.29
20105;BME280;10212;42.714;23.310;2022-08-19T00:27:41;95018.63;;;20.40;61.43
20105;BME280;10212;42.714;23.310;2022-08-19T00:32:42;95007.50;;;20.38;61.12
20105;BME280;10212;42.714;23.310;2022-08-19T00:37:42;95003.53;;;20.41;61.93
20105;BME280;10212;42.714;23.310;2022-08-19T00:42:43;94999.56;;;20.28;61.96
20105;BME280;10212;42.714;23.310;2022-08-19T00:47:45;95013.38;;;20.14;62.83
20105;BME280;10212;42.714;23.310;2022-08-19T00:52:48;95001.44;;;20.22;61.44
20105;BME280;10212;42.714;23.310;2022-08-19T00:57:56;95002.22;;;20.33;61.42
20105;BME280;10212;42.714;23.310;2022-08-19T01:02:58;95000.13;;;20.24;62.19
20105;BME280;10212;42.714;23.310;2022-08-19T01:08:01;94996.94;;;20.02;63.53
20105;BME280;10212;42.714;23.310;2022-08-19T01:13:04;94999.31;;;19.93;64.30
20105;BME280;10212;42.714;23.310;2022-08-19T01:18:08;95010.69;;;19.93;64.24
20105;BME280;10212;42.714;23.310;2022-08-19T01:23:10;95004.88;;;19.75;64.90
20105;BME280;10212;42.714;23.310;2022-08-19T01:28:24;94998.50;;;19.71;63.29
20105;BME280;10212;42.714;23.310;2022-08-19T01:33:28;95004.34;;;19.73;64.06
20105;BME280;10212;42.714;23.310;2022-08-19T01:38:34;94996.63;;;19.51;65.62
20105;BME280;10212;42.714;23.310;2022-08-19T01:43:36;94996.22;;;19.11;66.83
20105;BME280;10212;42.714;23.310;2022-08-19T01:48:39;95000.47;;;19.07;67.25
20105;BME280;10212;42.714;23.310;2022-08-19T01:53:40;95004.72;;;19.13;67.12
20105;BME280;10212;42.714;23.310;2022-08-19T01:58:54;95007.91;;;19.15;67.41
20105;BME280;10212;42.714;23.310;2022-08-19T02:03:56;95012.59;;;19.02;68.04
20105;BME280;10212;42.714;23.310;2022-08-19T02:08:56;95015.25;;;19.02;67.97
20105;BME280;10212;42.714;23.310;2022-08-19T02:13:58;95007.03;;;18.99;68.33
20105;BME280;10212;42.714;23.310;2022-08-19T02:18:59;95007.34;;;19.08;67.45
20105;BME280;10212;42.714;23.310;2022-08-19T02:24:03;95014.50;;;19.12;67.49
20105;BME280;10212;42.714;23.310;2022-08-19T02:29:04;95009.69;;;18.99;68.07
20105;BME280;10212;42.714;23.310;2022-08-19T02:34:04;95014.13;;;18.93;68.61
20105;BME280;10212;42.714;23.310;2022-08-19T02:39:05;95015.75;;;18.99;68.09
20105;BME280;10212;42.714;23.310;2022-08-19T02:44:06;95017.59;;;18.99;67.94
20105;BME280;10212;42.714;23.310;2022-08-19T02:49:07;95017.31;;;18.95;67.89
20105;BME280;10212;42.714;23.310;2022-08-19T02:54:10;95015.13;;;18.76;68.50
20105;BME280;10212;42.714;23.310;2022-08-19T02:59:11;95020.34;;;18.61;69.23
20105;BME280;10212;42.714;23.310;2022-08-19T03:04:13;95020.81;;;18.58;68.89
20105;BME280;10212;42.714;23.310;2022-08-19T03:09:15;95012.88;;;18.52;69.28
20105;BME280;10212;42.714;23.310;2022-08-19T03:14:16;95012.03;;;18.41;70.55
20105;BME280;10212;42.714;23.310;2022-08-19T03:19:19;95010.06;;;18.21;71.42
20105;BME280;10212;42.714;23.310;2022-08-19T03:24:21;95009.91;;;18.05;71.64
20105;BME280;10212;42.714;23.310;2022-08-19T03:29:22;95015.97;;;18.06;71.65
20105;BME280;10212;42.714;23.310;2022-08-19T03:34:25;95015.75;;;18.07;71.56
20105;BME280;10212;42.714;23.310;2022-08-19T03:39:28;95027.31;;;18.06;71.74
20105;BME280;10212;42.714;23.310;2022-08-19T03:44:29;95035.66;;;17.93;72.87
20105;BME280;10212;42.714;23.310;2022-08-19T03:49:32;95036.50;;;17.99;72.79
20105;BME280;10212;42.714;23.310;2022-08-19T03:54:35;95047.19;;;17.87;73.71
20105;BME280;10212;42.714;23.310;2022-08-19T03:59:37;95043.53;;;17.88;73.69
20105;BME280;10212;42.714;23.310;2022-08-19T04:04:39;95053.63;;;17.96;73.65
20105;BME280;10212;42.714;23.310;2022-08-19T04:09:40;95055.31;;;18.07;72.64
20105;BME280;10212;42.714;23.310;2022-08-19T04:14:41;95057.88;;;18.30;71.40
20105;BME280;10212;42.714;23.310;2022-08-19T04:19:42;95048.78;;;18.48;70.50
20105;BME280;10212;42.714;23.310;2022-08-19T04:24:43;95061.94;;;18.43;71.78
20105;BME280;10212;42.714;23.310;2022-08-19T04:29:44;95071.19;;;18.46;71.49
20105;BME280;10212;42.714;23.310;2022-08-19T04:34:44;95065.75;;;18.63;69.75
20105;BME280;10212;42.714;23.310;2022-08-19T04:39:44;95059.66;;;18.57;70.26
20105;BME280;10212;42.714;23.310;2022-08-19T04:45:10;95069.44;;;18.62;70.81
20105;BME280;10212;42.714;23.310;2022-08-19T04:50:11;95064.16;;;18.62;70.63
20105;BME280;10212;42.714;23.310;2022-08-19T04:55:12;95063.66;;;18.65;70.37
20105;BME280;10212;42.714;23.310;2022-08-19T05:00:13;95068.06;;;18.54;70.81
20105;BME280;10212;42.714;23.310;2022-08-19T05:05:14;95063.94;;;18.68;70.55
20105;BME280;10212;42.714;23.310;2022-08-19T05:10:15;95066.09;;;18.77;70.86
20105;BME280;10212;42.714;23.310;2022-08-19T05:15:15;95074.28;;;18.75;71.00
20105;BME280;10212;42.714;23.310;2022-08-19T05:20:16;95072.19;;;18.77;71.15
20105;BME280;10212;42.714;23.310;2022-08-19T05:25:39;95082.28;;;18.91;70.22
20105;BME280;10212;42.714;23.310;2022-08-19T05:30:39;95078.19;;;19.16;69.37
20105;BME280;10212;42.714;23.310;2022-08-19T05:35:40;95074.03;;;19.31;69.22
20105;BME280;10212;42.714;23.310;2022-08-19T05:40:41;95078.56;;;19.46;68.35
20105;BME280;10212;42.714;23.310;2022-08-19T05:45:46;95076.72;;;19.41;68.69
20105;BME280;10212;42.714;23.310;2022-08-19T05:50:46;95078.06;;;19.44;68.93
20105;BME280;10212;42.714;23.310;2022-08-19T05:55:49;95068.34;;;19.65;68.19
20105;BME280;10212;42.714;23.310;2022-08-19T06:00:49;95073.66;;;19.96;67.29
20105;BME280;10212;42.714;23.310;2022-08-19T06:05:50;95080.06;;;20.21;66.20
20105;BME280;10212;42.714;23.310;2022-08-19T06:10:51;95081.09;;;20.26;66.12
20105;BME280;10212;42.714;23.310;2022-08-19T06:15:51;95070.53;;;20.46;64.07
20105;BME280;10212;42.714;23.310;2022-08-19T06:20:52;95077.91;;;20.65;61.69
20105;BME280;10212;42.714;23.310;2022-08-19T06:25:52;95079.72;;;20.80;61.04
20105;BME280;10212;42.714;23.310;2022-08-19T06:30:53;95075.75;;;20.88;60.99
20105;BME280;10212;42.714;23.310;2022-08-19T06:35:53;95075.44;;;21.05;60.44
20105;BME280;10212;42.714;23.310;2022-08-19T06:41:04;95072.47;;;21.28;60.52
20105;BME280;10212;42.714;23.310;2022-08-19T06:46:10;95076.06;;;21.48;59.97
20105;BME280;10212;42.714;23.310;2022-08-19T06:51:16;95073.53;;;21.77;59.04
20105;BME280;10212;42.714;23.310;2022-08-19T06:56:22;95069.75;;;21.94;58.86
20105;BME280;10212;42.714;23.310;2022-08-19T07:01:23;95073.91;;;22.06;58.88
20105;BME280;10212;42.714;23.310;2022-08-19T07:06:24;95082.25;;;22.28;58.15
20105;BME280;10212;42.714;23.310;2022-08-19T07:11:24;95074.72;;;22.41;57.60
20105;BME280;10212;42.714;23.310;2022-08-19T07:16:25;95081.22;;;22.54;57.18
20105;BME280;10212;42.714;23.310;2022-08-19T07:21:35;95077.38;;;22.71;57.04
20105;BME280;10212;42.714;23.310;2022-08-19T07:26:41;95077.69;;;22.94;55.32
20105;BME280;10212;42.714;23.310;2022-08-19T07:31:42;95073.00;;;23.10;55.65
20105;BME280;10212;42.714;23.310;2022-08-19T07:36:43;95074.16;;;23.23;55.27
20105;BME280;10212;42.714;23.310;2022-08-19T07:41:44;95066.97;;;23.48;54.42
20105;BME280;10212;42.714;23.310;2022-08-19T07:46:46;95070.59;;;23.77;53.86
20105;BME280;10212;42.714;23.310;2022-08-19T07:51:59;95070.72;;;23.85;53.60
20105;BME280;10212;42.714;23.310;2022-08-19T07:57:01;95067.03;;;24.20;52.32
20105;BME280;10212;42.714;23.310;2022-08-19T08:02:03;95069.28;;;24.46;51.47
20105;BME280;10212;42.714;23.310;2022-08-19T08:07:05;95064.50;;;24.76;50.90
20105;BME280;10212;42.714;23.310;2022-08-19T08:12:32;95062.34;;;25.07;49.68
20105;BME280;10212;42.714;23.310;2022-08-19T08:17:33;95054.63;;;25.19;49.33
20105;BME280;10212;42.714;23.310;2022-08-19T08:22:34;95040.06;;;25.53;48.82
20105;BME280;10212;42.714;23.310;2022-08-19T08:27:53;95044.50;;;25.72;48.30
20105;BME280;10212;42.714;23.310;2022-08-19T08:32:56;95041.00;;;26.09;47.00
20105;BME280;10212;42.714;23.310;2022-08-19T08:37:56;95033.31;;;26.39;45.57
20105;BME280;10212;42.714;23.310;2022-08-19T08:43:11;95034.03;;;26.54;44.88
20105;BME280;10212;42.714;23.310;2022-08-19T08:48:21;95033.56;;;26.92;42.90
20105;BME280;10212;42.714;23.310;2022-08-19T08:53:23;95019.50;;;27.18;42.00
20105;BME280;10212;42.714;23.310;2022-08-19T08:58:30;95017.91;;;27.17;41.33
20105;BME280;10212;42.714;23.310;2022-08-19T09:03:41;95014.50;;;27.43;41.96
20105;BME280;10212;42.714;23.310;2022-08-19T09:08:49;95015.31;;;27.88;38.07
20105;BME280;10212;42.714;23.310;2022-08-19T09:19:03;95005.34;;;28.15;38.32
20105;BME280;10212;42.714;23.310;2022-08-19T09:24:04;95006.06;;;28.34;38.83
20105;BME280;10212;42.714;23.310;2022-08-19T09:29:05;94995.66;;;28.50;35.07
20105;BME280;10212;42.714;23.310;2022-08-19T09:34:06;94990.13;;;28.85;35.21
20105;BME280;10212;42.714;23.310;2022-08-19T09:39:08;94983.09;;;29.32;34.87
20105;BME280;10212;42.714;23.310;2022-08-19T09:44:09;94979.63;;;29.53;32.95
20105;BME280;10212;42.714;23.310;2022-08-19T09:49:11;94978.78;;;29.61;32.81
20105;BME280;10212;42.714;23.310;2022-08-19T09:54:11;94967.91;;;29.79;32.41
20105;BME280;10212;42.714;23.310;2022-08-19T09:59:12;94971.75;;;29.91;31.03
20105;BME280;10212;42.714;23.310;2022-08-19T10:04:15;94967.69;;;29.84;31.45
20105;BME280;10212;42.714;23.310;2022-08-19T10:09:16;94956.84;;;29.93;31.10
20105;BME280;10212;42.714;23.310;2022-08-19T10:14:18;94944.00;;;29.99;31.57
20105;BME280;10212;42.714;23.310;2022-08-19T10:19:22;94945.66;;;30.38;31.16
20105;BME280;10212;42.714;23.310;2022-08-19T10:24:23;94948.34;;;30.50;30.80
20105;BME280;10212;42.714;23.310;2022-08-19T10:29:24;94949.91;;;30.64;31.27
20105;BME280;10212;42.714;23.310;2022-08-19T10:34:25;94937.81;;;30.70;30.79
20105;BME280;10212;42.714;23.310;2022-08-19T10:39:26;94932.44;;;30.57;30.10
20105;BME280;10212;42.714;23.310;2022-08-19T10:44:29;94927.94;;;30.87;29.74
20105;BME280;10212;42.714;23.310;2022-08-19T10:49:30;94923.03;;;30.89;29.86
20105;BME280;10212;42.714;23.310;2022-08-19T10:54:33;94923.44;;;31.03;30.25
20105;BME280;10212;42.714;23.310;2022-08-19T10:59:52;94924.06;;;31.25;29.60
20105;BME280;10212;42.714;23.310;2022-08-19T11:04:53;94922.91;;;31.39;29.73
20105;BME280;10212;42.714;23.310;2022-08-19T11:09:53;94912.25;;;31.43;29.27
20105;BME280;10212;42.714;23.310;2022-08-19T11:14:54;94911.75;;;31.53;29.44
20105;BME280;10212;42.714;23.310;2022-08-19T11:19:55;94906.88;;;31.71;28.96
20105;BME280;10212;42.714;23.310;2022-08-19T11:24:55;94905.03;;;31.75;29.11
20105;BME280;10212;42.714;23.310;2022-08-19T11:29:56;94901.25;;;31.93;29.13
20105;BME280;10212;42.714;23.310;2022-08-19T11:34:56;94894.66;;;32.22;28.42
20105;BME280;10212;42.714;23.310;2022-08-19T11:39:57;94891.78;;;32.15;28.48
20105;BME280;10212;42.714;23.310;2022-08-19T11:44:57;94883.59;;;31.95;28.24
20105;BME280;10212;42.714;23.310;2022-08-19T11:49:58;94880.75;;;32.04;28.51
20105;BME280;10212;42.714;23.310;2022-08-19T11:54:59;94882.66;;;32.20;28.55
20105;BME280;10212;42.714;23.310;2022-08-19T11:59:59;94877.78;;;32.25;28.52
20105;BME280;10212;42.714;23.310;2022-08-19T12:05:00;94861.16;;;32.56;27.79
20105;BME280;10212;42.714;23.310;2022-08-19T12:10:03;94862.25;;;32.71;27.82
20105;BME280;10212;42.714;23.310;2022-08-19T12:15:04;94850.41;;;32.95;27.62
20105;BME280;10212;42.714;23.310;2022-08-19T12:20:06;94854.53;;;33.09;26.89
20105;BME280;10212;42.714;23.310;2022-08-19T12:25:09;94845.28;;;33.10;27.15
20105;BME280;10212;42.714;23.310;2022-08-19T12:30:11;94827.97;;;33.31;26.46
20105;BME280;10212;42.714;23.310;2022-08-19T12:35:12;94831.38;;;33.28;26.68
20105;BME280;10212;42.714;23.310;2022-08-19T12:40:14;94826.50;;;33.57;26.43
20105;BME280;10212;42.714;23.310;2022-08-19T12:45:15;94823.19;;;34.14;26.42
20105;BME280;10212;42.714;23.310;2022-08-19T12:50:15;94813.31;;;33.99;25.93
20105;BME280;10212;42.714;23.310;2022-08-19T12:55:16;94808.19;;;34.44;25.91
20105;BME280;10212;42.714;23.310;2022-08-19T13:00:19;94809.91;;;34.56;25.79
20105;BME280;10212;42.714;23.310;2022-08-19T13:05:26;94816.72;;;35.08;24.27
20105;BME280;10212;42.714;23.310;2022-08-19T13:10:32;94803.53;;;35.03;24.77
20105;BME280;10212;42.714;23.310;2022-08-19T13:15:38;94791.50;;;35.34;24.76
20105;BME280;10212;42.714;23.310;2022-08-19T13:20:45;94789.53;;;35.73;24.52
20105;BME280;10212;42.714;23.310;2022-08-19T13:25:55;94779.97;;;35.87;23.77
20105;BME280;10212;42.714;23.310;2022-08-19T13:30:56;94786.13;;;35.80;23.67
20105;BME280;10212;42.714;23.310;2022-08-19T13:36:15;94775.81;;;36.00;23.96
20105;BME280;10212;42.714;23.310;2022-08-19T13:41:15;94782.94;;;36.23;24.04
20105;BME280;10212;42.714;23.310;2022-08-19T13:46:16;94771.91;;;35.94;23.05
20105;BME280;10212;42.714;23.310;2022-08-19T13:51:17;94767.22;;;35.91;22.90
20105;BME280;10212;42.714;23.310;2022-08-19T13:56:19;94758.03;;;36.06;23.84
20105;BME280;10212;42.714;23.310;2022-08-19T14:01:23;94770.09;;;36.16;23.95
20105;BME280;10212;42.714;23.310;2022-08-19T14:06:24;94755.22;;;35.92;23.72
20105;BME280;10212;42.714;23.310;2022-08-19T14:11:25;94755.16;;;35.84;23.45
20105;BME280;10212;42.714;23.310;2022-08-19T14:16:26;94753.88;;;35.71;24.66
20105;BME280;10212;42.714;23.310;2022-08-19T14:21:27;94761.59;;;35.69;24.26
20105;BME280;10212;42.714;23.310;2022-08-19T14:26:28;94755.94;;;35.40;24.62
20105;BME280;10212;42.714;23.310;2022-08-19T14:31:28;94747.22;;;35.19;25.01
20105;BME280;10212;42.714;23.310;2022-08-19T14:36:29;94746.84;;;35.21;25.08
20105;BME280;10212;42.714;23.310;2022-08-19T14:41:31;94745.53;;;35.07;25.25
20105;BME280;10212;42.714;23.310;2022-08-19T14:46:31;94750.88;;;35.00;25.07
20105;BME280;10212;42.714;23.310;2022-08-19T14:51:32;94740.06;;;35.00;24.56
20105;BME280;10212;42.714;23.310;2022-08-19T14:56:32;94735.47;;;35.04;25.02
20105;BME280;10212;42.714;23.310;2022-08-19T15:01:33;94733.13;;;35.06;25.07
20105;BME280;10212;42.714;23.310;2022-08-19T15:06:34;94732.56;;;34.55;26.07
20105;BME280;10212;42.714;23.310;2022-08-19T15:11:35;94733.34;;;34.56;25.96
20105;BME280;10212;42.714;23.310;2022-08-19T15:16:36;94739.25;;;34.34;26.81
20105;BME280;10212;42.714;23.310;2022-08-19T15:21:40;94735.22;;;34.21;26.88
20105;BME280;10212;42.714;23.310;2022-08-19T15:26:41;94727.19;;;34.01;27.63
20105;BME280;10212;42.714;23.310;2022-08-19T15:31:43;94723.91;;;33.88;27.77
20105;BME280;10212;42.714;23.310;2022-08-19T15:36:43;94723.50;;;33.62;28.53
20105;BME280;10212;42.714;23.310;2022-08-19T15:41:45;94733.09;;;33.32;29.05
20105;BME280;10212;42.714;23.310;2022-08-19T15:46:46;94731.88;;;33.10;29.20
20105;BME280;10212;42.714;23.310;2022-08-19T15:51:48;94728.38;;;32.86;29.37
20105;BME280;10212;42.714;23.310;2022-08-19T15:56:49;94730.31;;;32.49;30.23
20105;BME280;10212;42.714;23.310;2022-08-19T16:02:09;94731.56;;;32.16;31.10
20105;BME280;10212;42.714;23.310;2022-08-19T16:07:28;94736.53;;;31.98;30.95
20105;BME280;10212;42.714;23.310;2022-08-19T16:12:29;94733.88;;;31.82;30.88
20105;BME280;10212;42.714;23.310;2022-08-19T16:17:30;94737.88;;;31.56;31.59
20105;BME280;10212;42.714;23.310;2022-08-19T16:22:31;94740.28;;;31.28;33.62
20105;BME280;10212;42.714;23.310;2022-08-19T16:27:32;94742.56;;;30.98;35.84
20105;BME280;10212;42.714;23.310;2022-08-19T16:32:33;94742.72;;;30.76;34.47
20105;BME280;10212;42.714;23.310;2022-08-19T16:37:34;94744.59;;;30.60;34.14
20105;BME280;10212;42.714;23.310;2022-08-19T16:42:34;94745.72;;;30.46;35.10
20105;BME280;10212;42.714;23.310;2022-08-19T16:47:35;94740.41;;;30.21;34.55
20105;BME280;10212;42.714;23.310;2022-08-19T16:52:36;94745.78;;;30.21;35.15
20105;BME280;10212;42.714;23.310;2022-08-19T16:57:37;94745.13;;;29.99;35.91
20105;BME280;10212;42.714;23.310;2022-08-19T17:02:38;94757.66;;;29.82;35.18
20105;BME280;10212;42.714;23.310;2022-08-19T17:07:39;94757.44;;;29.63;36.01
20105;BME280;10212;42.714;23.310;2022-08-19T17:12:39;94759.63;;;29.48;35.52
20105;BME280;10212;42.714;23.310;2022-08-19T17:17:40;94770.56;;;29.30;36.84
20105;BME280;10212;42.714;23.310;2022-08-19T17:22:40;94767.28;;;29.24;36.56
20105;BME280;10212;42.714;23.310;2022-08-19T17:27:41;94776.50;;;29.02;36.60
20105;BME280;10212;42.714;23.310;2022-08-19T17:32:41;94778.31;;;28.89;37.65
20105;BME280;10212;42.714;23.310;2022-08-19T17:37:42;94788.72;;;28.69;37.76
20105;BME280;10212;42.714;23.310;2022-08-19T17:42:44;94799.91;;;28.50;37.66
20105;BME280;10212;42.714;23.310;2022-08-19T17:47:44;94798.41;;;28.40;38.34
20105;BME280;10212;42.714;23.310;2022-08-19T17:52:44;94807.31;;;28.23;38.16
20105;BME280;10212;42.714;23.310;2022-08-19T17:57:45;94816.16;;;28.14;39.05
20105;BME280;10212;42.714;23.310;2022-08-19T18:02:51;94812.00;;;27.96;38.98
20105;BME280;10212;42.714;23.310;2022-08-19T18:07:52;94815.53;;;27.87;39.20
20105;BME280;10212;42.714;23.310;2022-08-19T18:12:54;94811.78;;;27.71;38.54
20105;BME280;10212;42.714;23.310;2022-08-19T18:17:54;94825.00;;;27.67;39.75
20105;BME280;10212;42.714;23.310;2022-08-19T18:22:55;94831.84;;;27.47;40.24
20105;BME280;10212;42.714;23.310;2022-08-19T18:27:58;94839.25;;;27.32;40.55
20105;BME280;10212;42.714;23.310;2022-08-19T18:33:00;94839.09;;;27.19;41.20
20105;BME280;10212;42.714;23.310;2022-08-19T18:38:01;94835.16;;;26.99;42.01
20105;BME280;10212;42.714;23.310;2022-08-19T18:43:22;94833.25;;;26.82;42.90
20105;BME280;10212;42.714;23.310;2022-08-19T18:48:22;94830.56;;;26.64;43.53
20105;BME280;10212;42.714;23.310;2022-08-19T18:53:44;94835.13;;;26.46;44.06
20105;BME280;10212;42.714;23.310;2022-08-19T18:58:45;94842.25;;;26.28;44.95
20105;BME280;10212;42.714;23.310;2022-08-19T19:03:50;94846.63;;;26.15;45.65
20105;BME280;10212;42.714;23.310;2022-08-19T19:08:52;94849.88;;;26.03;46.41
20105;BME280;10212;42.714;23.310;2022-08-19T19:13:54;94851.72;;;25.93;46.46
20105;BME280;10212;42.714;23.310;2022-08-19T19:18:55;94865.19;;;25.88;46.92
20105;BME280;10212;42.714;23.310;2022-08-19T19:23:55;94868.00;;;25.83;47.11
20105;BME280;10212;42.714;23.310;2022-08-19T19:28:56;94868.28;;;25.72;47.24
20105;BME280;10212;42.714;23.310;2022-08-19T19:33:58;94882.47;;;25.59;48.09
20105;BME280;10212;42.714;23.310;2022-08-19T19:38:58;94893.88;;;25.50;48.40
20105;BME280;10212;42.714;23.310;2022-08-19T19:43:59;94893.50;;;25.43;48.27
20105;BME280;10212;42.714;23.310;2022-08-19T19:49:01;94896.53;;;25.27;48.82
20105;BME280;10212;42.714;23.310;2022-08-19T19:54:01;94904.06;;;25.25;48.90
20105;BME280;10212;42.714;23.310;2022-08-19T19:59:02;94906.16;;;25.14;49.26
20105;BME280;10212;42.714;23.310;2022-08-19T20:04:03;94901.13;;;25.13;49.55
20105;BME280;10212;42.714;23.310;2022-08-19T20:09:03;94902.50;;;25.10;49.33
20105;BME280;10212;42.714;23.310;2022-08-19T20:14:12;94906.66;;;25.16;48.88
20105;BME280;10212;42.714;23.310;2022-08-19T20:19:15;94904.19;;;25.20;49.60
20105;BME280;10212;42.714;23.310;2022-08-19T20:24:23;94900.63;;;25.11;50.02
20105;BME280;10212;42.714;23.310;2022-08-19T20:29:24;94905.25;;;25.19;49.18
20105;BME280;10212;42.714;23.310;2022-08-19T20:34:25;94910.00;;;25.22;49.09
20105;BME280;10212;42.714;23.310;2022-08-19T20:39:25;94923.88;;;24.96;49.97
20105;BME280;10212;42.714;23.310;2022-08-19T20:44:26;94929.81;;;24.65;51.35
20105;BME280;10212;42.714;23.310;2022-08-19T20:49:26;94928.63;;;24.43;52.31
20105;BME280;10212;42.714;23.310;2022-08-19T20:54:27;94943.66;;;24.39;52.09
20105;BME280;10212;42.714;23.310;2022-08-19T20:59:28;94929.38;;;24.15;53.30
20105;BME280;10212;42.714;23.310;2022-08-19T21:04:28;94942.50;;;24.12;53.25
20105;BME280;10212;42.714;23.310;2022-08-19T21:09:29;94941.00;;;24.05;53.86
20105;BME280;10212;42.714;23.310;2022-08-19T21:14:29;94944.88;;;23.80;54.91
20105;BME280;10212;42.714;23.310;2022-08-19T21:19:30;94931.69;;;23.89;54.54
20105;BME280;10212;42.714;23.310;2022-08-19T21:24:30;94929.91;;;23.84;53.73
20105;BME280;10212;42.714;23.310;2022-08-19T21:29:31;94938.59;;;23.90;53.30
20105;BME280;10212;42.714;23.310;2022-08-19T21:34:35;94932.19;;;23.91;52.94
20105;BME280;10212;42.714;23.310;2022-08-19T21:39:36;94936.94;;;23.94;52.80
20105;BME280;10212;42.714;23.310;2022-08-19T21:44:37;94939.03;;;24.11;51.97
20105;BME280;10212;42.714;23.310;2022-08-19T21:49:39;94940.63;;;24.12;51.57
20105;BME280;10212;42.714;23.310;2022-08-19T21:54:39;94932.28;;;24.19;51.26
20105;BME280;10212;42.714;23.310;2022-08-19T21:59:41;94933.94;;;24.29;50.92
20105;BME280;10212;42.714;23.310;2022-08-19T22:04:42;94926.84;;;24.24;50.74
20105;BME280;10212;42.714;23.310;2022-08-19T22:09:44;94933.84;;;24.20;51.19
20105;BME280;10212;42.714;23.310;2022-08-19T22:14:45;94926.25;;;24.41;49.98
20105;BME280;10212;42.714;23.310;2022-08-19T22:19:45;94926.06;;;24.38;49.71
20105;BME280;10212;42.714;23.310;2022-08-19T22:24:46;94926.47;;;24.45;49.88
20105;BME280;10212;42.714;23.310;2022-08-19T22:29:47;94912.06;;;24.32;50.02
20105;BME280;10212;42.714;23.310;2022-08-19T22:34:47;94919.56;;;24.30;49.79
20105;BME280;10212;42.714;23.310;2022-08-19T22:39:48;94912.94;;;24.27;49.88
20105;BME280;10212;42.714;23.310;2022-08-19T22:44:48;94898.22;;;24.16;50.30
20105;BME280;10212;42.714;23.310;2022-08-19T22:49:49;94893.75;;;24.11;50.37
20105;BME280;10212;42.714;23.310;2022-08-19T22:54:54;94894.84;;;24.10;50.90
20105;BME280;10212;42.714;23.310;2022-08-19T22:59:56;94900.56;;;23.89;51.09
20105;BME280;10212;42.714;23.310;2022-08-19T23:05:00;94905.06;;;23.89;51.35
20105;BME280;10212;42.714;23.310;2022-08-19T23:10:05;94894.59;;;23.78;51.64
20105;BME280;10212;42.714;23.310;2022-08-19T23:15:20;94888.66;;;23.67;51.96
20105;BME280;10212;42.714;23.310;2022-08-19T23:20:27;94888.66;;;23.67;52.01
20105;BME280;10212;42.714;23.310;2022-08-19T23:25:30;94880.47;;;23.64;52.14
20105;BME280;10212;42.714;23.310;2022-08-19T23:30:32;94886.72;;;23.73;52.16
20105;BME280;10212;42.714;23.310;2022-08-19T23:35:35;94871.81;;;23.72;52.01
20105;BME280;10212;42.714;23.310;2022-08-19T23:40:37;94860.78;;;23.65;52.25
20105;BME280;10212;42.714;23.310;2022-08-19T23:45:40;94858.44;;;23.77;52.08
20105;BME280;10212;42.714;23.310;2022-08-19T23:50:41;94861.88;;;23.78;52.17
20105;BME280;10212;42.714;23.310;2022-08-19T23:55:44;94864.53;;;23.78;52.20
